Historyczne dane pomiarowe

Dodano dane terminowe – wersja testowa.

Dane z okresu 1951-2019

Wersja bazy: 1.34 [2019-03-16, lista zmian], aktualizacja planowana na 2019-04-15

Dane meteo z obszaru Polski uzyskane na podstawie danych udostępnionych przez Instytut Meteorologii i Gospodarki Wodnej – Państwowy Instytut Badawczy.

 

Wybierz Datę:    

       

TemperaturaWilgotnośćWiatrCiśnienieOpadyŚniegCzas trwania zjawisk
 Stacja t tx tn tng RH VA  wxwx mslp ppp RRR   cm mm wxwxwxwxwxwxwx
1970-10-10 16.9 24.3 10.3- 78.3- 0.0 2.0---- 0.1------------
1970-10-09 14.4 21.8 6.5- 87.8- 3.3 1.0---- 0.0------------
1970-10-08 13.1 21.2 9.6- 81.3- 0.3 0.7---- 0.0------------
1970-10-07 13.3 21.4 4.5- 77.5- 1.0 3.3---- 0.1------------
1970-10-06 11.5 18.1 8.8- 85.8- 3.7 1.7---- 0.0------------
1970-10-05 10.1 11.9 6.1- 92.0- 8.0 1.3---- 6.8------------
1970-10-04 6.9 13.2 5.9- 97.3- 8.0 3.3---- 9.8------------
1970-10-03 8.3 12.0 4.9- 77.8- 5.3 3.7---- 4.3------------
1970-10-02 8.3 12.0 5.9- 89.3- 6.7 2.7---- 5.1------------
1970-10-01 10.1 13.7 8.5- 91.5- 7.3 1.0---- 2.4------------
1970-09-30 12.0 20.5 1.6- 71.5- 4.7 3.3---- 3.1------------
1970-09-29 4.5 14.6 -1.6- 86.3- 0.3 1.3---- 0.0------------
1970-09-28 3.6 10.5 0.5- 82.8- 0.0 0.3---- 0.0------------
1970-09-27 4.9 13.8 0.0- 85.3- 1.0 1.0---- 0.0------------
1970-09-26 6.0 12.4 3.4- 83.3- 1.7 2.0---- 0.0------------
1970-09-25 8.6 14.3 2.1- 84.8- 6.3 1.0---- 1.2------------
1970-09-24 5.5 13.2 -0.3- 82.3- 0.3 1.7---- 0.0------------
1970-09-23 6.3 14.2 1.5- 85.0- 4.0 1.7---- 0.0------------
1970-09-22 6.8 13.6 3.8- 79.0- 4.0 2.0---- 0.0------------
1970-09-21 13.7 19.8 8.2- 85.8- 3.0 2.3---- 0.9------------
1970-09-20 11.5 16.6 8.8- 90.5- 6.0 1.0---- 0.0------------
1970-09-19 11.9 16.2 9.3- 87.3- 5.7 3.0---- 1.0------------
1970-09-18 12.5 18.0 5.2- 67.0- 6.0 0.7---- 1.2------------
1970-09-17 10.8 17.8 8.4- 77.8- 1.7 2.0---- 0.0------------
1970-09-16 15.9 22.8 12.3- 75.3- 5.0 4.3---- 0.0------------
1970-09-15 15.8 24.7 8.3- 77.8- 0.0 1.7---- 0.0------------
1970-09-14 15.1 22.6 5.0- 69.5- 0.7 1.7---- 0.0------------
1970-09-13 12.8 19.5 10.8- 86.3- 5.7 0.0---- 0.8------------
1970-09-12 13.8 20.3 11.8- 80.0- 3.0 1.0---- 6.0------------
1970-09-11 20.3 26.7 11.0- 81.5- 1.3 1.7---- 4.4------------
1970-09-10 21.2 27.6 12.8- 70.3- 0.0 2.3---- 0.0------------
1970-09-09 18.7 25.1 14.9- 76.8- 1.3 1.0---- 0.0------------
1970-09-08 15.7 22.1 3.6- 70.5- 3.0 4.0---- 0.0------------
1970-09-07 10.7 17.7 6.8- 80.0- 0.7 2.3---- 0.0------------
1970-09-06 11.0 16.3 9.3- 76.5- 5.7 4.0---- 0.0------------
1970-09-05 14.8 19.3 12.1- 70.3- 3.0 6.7---- 2.1------------
1970-09-04 14.4 18.4 12.2- 76.0- 4.3 1.7---- 3.8------------
1970-09-03 16.4 21.3 8.8- 69.8- 5.0 2.3---- 0.2------------
1970-09-02 13.3 19.6 10.3- 90.5- 3.0 2.0---- 0.0------------
1970-09-01 17.3 23.8 9.3- 80.5- 1.0 2.3---- 0.0------------
1970-08-31 16.2 22.7 10.8- 87.5- 0.0 0.7---- 0.0------------
1970-08-30 16.6 22.6 12.8- 90.3- 4.0 1.3---- 0.0------------
1970-08-29 16.3 21.9 12.8- 82.5- 6.0 2.0---- 8.9------------
1970-08-28 16.7 22.2 8.3- 72.3- 4.0 1.3---- 0.0------------
1970-08-27 14.5 20.9 11.5- 80.5- 0.0 0.7---- 0.0------------
1970-08-26 14.2 21.3 8.8- 85.5- 1.7 1.7---- 0.0------------
1970-08-25 13.4 18.7 11.4- 85.0- 4.7 2.0---- 0.2------------
1970-08-24 13.5 16.7 12.2- 94.8- 8.0 1.0---- 0.0------------
1970-08-23 13.4 14.8 12.3- 91.0- 8.0 1.0---- 6.0------------
1970-08-22 13.2 17.7 12.3- 96.0- 8.0 2.7---- 37.5------------
1970-08-21 17.9 23.4 13.6- 76.8- 5.7 2.3---- 8.1------------
1970-08-20 19.0 24.8 10.8- 72.5- 0.3 2.3---- 0.0------------
1970-08-19 16.0 21.9 6.9- 70.3- 2.0 1.3---- 0.0------------
1970-08-18 14.6 22.7 9.8- 85.8- 0.3 1.0---- 0.0------------
1970-08-17 16.0 22.9 10.6- 91.3- 5.0 2.3---- 22.5------------
1970-08-16 17.6 22.6 10.7- 80.0- 2.7 1.3---- 0.0------------
1970-08-15 17.3 25.6 12.8- 88.3- 3.0 1.3---- 8.7------------
1970-08-14 17.6 26.1 7.6- 77.0- 0.3 1.0---- 0.0------------
1970-08-13 16.0 20.9 7.8- 80.0- 2.7 4.0---- 0.0------------
1970-08-12 15.5 18.4 10.1- 79.5- 3.3 4.7---- 0.0------------
395.9 ms

 

Źródłem pochodzenia danych jest Instytut Meteorologii i Gospodarki Wodnej – Państwowy Instytut Badawczy. Dane Instytutu Meteorologii i Gospodarki Wodnej – Państwowego Instytutu Badawczego zostały przetworzone.

Dane źródłowe można odnaleźć na stronie https://dane.imgw.pl